sensor_id;sensor_type;location;lat;lon;timestamp;temperature;humidity
4556;DHT22;2290;48.674;9.018;2023-03-04T00:02:27;2.20;99.90
4556;DHT22;2290;48.674;9.018;2023-03-04T00:26:22;2.20;99.90
4556;DHT22;2290;48.674;9.018;2023-03-04T00:29:54;2.10;99.90
4556;DHT22;2290;48.674;9.018;2023-03-04T00:53:47;1.60;99.90
4556;DHT22;2290;48.674;9.018;2023-03-04T01:15:20;1.70;99.90
4556;DHT22;2290;48.674;9.018;2023-03-04T01:19:03;1.60;99.90
4556;DHT22;2290;48.674;9.018;2023-03-04T01:48:17;1.60;99.90
4556;DHT22;2290;48.674;9.018;2023-03-04T02:16:24;1.90;99.90
4556;DHT22;2290;48.674;9.018;2023-03-04T02:33:24;1.60;99.90
4556;DHT22;2290;48.674;9.018;2023-03-04T02:36:46;1.50;99.90
4556;DHT22;2290;48.674;9.018;2023-03-04T02:47:54;1.50;99.90
4556;DHT22;2290;48.674;9.018;2023-03-04T02:51:57;1.50;99.90
4556;DHT22;2290;48.674;9.018;2023-03-04T02:59:25;1.60;99.90
4556;DHT22;2290;48.674;9.018;2023-03-04T03:02:54;1.70;99.90
4556;DHT22;2290;48.674;9.018;2023-03-04T03:17:04;1.50;99.90
4556;DHT22;2290;48.674;9.018;2023-03-04T03:20:22;1.50;99.90
4556;DHT22;2290;48.674;9.018;2023-03-04T03:30:41;1.50;99.90
4556;DHT22;2290;48.674;9.018;2023-03-04T03:48:56;1.60;99.90
4556;DHT22;2290;48.674;9.018;2023-03-04T03:59:33;1.30;99.90
4556;DHT22;2290;48.674;9.018;2023-03-04T04:37:30;1.10;99.90
4556;DHT22;2290;48.674;9.018;2023-03-04T04:40:32;1.20;99.90
4556;DHT22;2290;48.674;9.018;2023-03-04T04:43:11;1.20;99.90
4556;DHT22;2290;48.674;9.018;2023-03-04T05:23:21;0.50;99.90
4556;DHT22;2290;48.674;9.018;2023-03-04T05:25:47;0.50;99.90
4556;DHT22;2290;48.674;9.018;2023-03-04T05:28:18;0.50;99.90
4556;DHT22;2290;48.674;9.018;2023-03-04T05:30:46;0.50;99.90
4556;DHT22;2290;48.674;9.018;2023-03-04T05:33:15;0.40;99.90
4556;DHT22;2290;48.674;9.018;2023-03-04T05:35:42;0.50;99.90
4556;DHT22;2290;48.674;9.018;2023-03-04T05:38:11;0.50;99.90
4556;DHT22;2290;48.674;9.018;2023-03-04T05:40:39;0.40;99.90
4556;DHT22;2290;48.674;9.018;2023-03-04T05:43:05;0.30;99.90
4556;DHT22;2290;48.674;9.018;2023-03-04T05:45:30;0.20;99.90
4556;DHT22;2290;48.674;9.018;2023-03-04T05:47:56;0.30;99.90
4556;DHT22;2290;48.674;9.018;2023-03-04T05:50:22;0.20;99.90
4556;DHT22;2290;48.674;9.018;2023-03-04T05:52:48;0.10;99.90
4556;DHT22;2290;48.674;9.018;2023-03-04T05:55:15;0.10;99.90
4556;DHT22;2290;48.674;9.018;2023-03-04T05:57:41;0.20;99.90
4556;DHT22;2290;48.674;9.018;2023-03-04T06:00:09;0.10;99.90
4556;DHT22;2290;48.674;9.018;2023-03-04T06:02:56;0.10;99.90
4556;DHT22;2290;48.674;9.018;2023-03-04T06:05:22;0.00;99.90
4556;DHT22;2290;48.674;9.018;2023-03-04T06:07:47;0.10;99.90
4556;DHT22;2290;48.674;9.018;2023-03-04T06:10:16;0.00;99.90
4556;DHT22;2290;48.674;9.018;2023-03-04T06:12:43;-0.10;99.90
4556;DHT22;2290;48.674;9.018;2023-03-04T06:15:11;-0.20;99.90
4556;DHT22;2290;48.674;9.018;2023-03-04T06:17:39;-0.20;99.90
4556;DHT22;2290;48.674;9.018;2023-03-04T06:20:07;-0.20;99.90
4556;DHT22;2290;48.674;9.018;2023-03-04T06:22:35;-0.10;99.90
4556;DHT22;2290;48.674;9.018;2023-03-04T06:25:00;0.10;99.90
4556;DHT22;2290;48.674;9.018;2023-03-04T06:27:26;0.00;99.90
4556;DHT22;2290;48.674;9.018;2023-03-04T06:29:52;0.00;99.90
4556;DHT22;2290;48.674;9.018;2023-03-04T06:32:18;-0.10;99.90
4556;DHT22;2290;48.674;9.018;2023-03-04T06:34:43;-0.10;99.90
4556;DHT22;2290;48.674;9.018;2023-03-04T06:37:11;-0.10;99.90
4556;DHT22;2290;48.674;9.018;2023-03-04T06:39:37;-0.10;99.90
4556;DHT22;2290;48.674;9.018;2023-03-04T06:42:09;0.00;99.90
4556;DHT22;2290;48.674;9.018;2023-03-04T06:44:36;0.20;99.90
4556;DHT22;2290;48.674;9.018;2023-03-04T06:47:03;0.30;99.90
4556;DHT22;2290;48.674;9.018;2023-03-04T06:49:29;0.40;99.90
4556;DHT22;2290;48.674;9.018;2023-03-04T06:51:55;0.40;99.90
4556;DHT22;2290;48.674;9.018;2023-03-04T06:54:22;0.60;99.90
4556;DHT22;2290;48.674;9.018;2023-03-04T06:56:49;0.70;99.90
4556;DHT22;2290;48.674;9.018;2023-03-04T06:59:23;0.80;99.90
4556;DHT22;2290;48.674;9.018;2023-03-04T07:01:49;0.80;99.90
4556;DHT22;2290;48.674;9.018;2023-03-04T07:04:15;0.90;99.90
4556;DHT22;2290;48.674;9.018;2023-03-04T07:06:48;0.90;99.90
4556;DHT22;2290;48.674;9.018;2023-03-04T07:09:15;1.00;99.90
4556;DHT22;2290;48.674;9.018;2023-03-04T07:11:42;1.10;99.90
4556;DHT22;2290;48.674;9.018;2023-03-04T07:14:10;1.00;99.90
4556;DHT22;2290;48.674;9.018;2023-03-04T07:16:38;1.10;99.90
4556;DHT22;2290;48.674;9.018;2023-03-04T07:19:04;1.20;99.90
4556;DHT22;2290;48.674;9.018;2023-03-04T07:21:30;1.30;99.90
4556;DHT22;2290;48.674;9.018;2023-03-04T07:23:57;1.30;99.90
4556;DHT22;2290;48.674;9.018;2023-03-04T07:26:23;1.40;99.90
4556;DHT22;2290;48.674;9.018;2023-03-04T07:28:50;1.50;99.90
4556;DHT22;2290;48.674;9.018;2023-03-04T07:31:24;1.60;99.90
4556;DHT22;2290;48.674;9.018;2023-03-04T07:34:07;1.60;99.90
4556;DHT22;2290;48.674;9.018;2023-03-04T07:36:35;1.70;99.90
4556;DHT22;2290;48.674;9.018;2023-03-04T07:39:01;1.80;99.90
4556;DHT22;2290;48.674;9.018;2023-03-04T07:41:29;1.80;99.90
4556;DHT22;2290;48.674;9.018;2023-03-04T07:43:56;1.80;99.90
4556;DHT22;2290;48.674;9.018;2023-03-04T07:46:24;1.80;99.90
4556;DHT22;2290;48.674;9.018;2023-03-04T07:48:51;1.80;99.90
4556;DHT22;2290;48.674;9.018;2023-03-04T07:51:19;1.80;99.90
4556;DHT22;2290;48.674;9.018;2023-03-04T07:53:49;1.80;99.90
4556;DHT22;2290;48.674;9.018;2023-03-04T07:56:23;1.80;99.90
4556;DHT22;2290;48.674;9.018;2023-03-04T08:02:38;1.90;99.90
4556;DHT22;2290;48.674;9.018;2023-03-04T08:26:45;1.70;99.90
4556;DHT22;2290;48.674;9.018;2023-03-04T09:08:53;2.00;99.90
4556;DHT22;2290;48.674;9.018;2023-03-04T09:12:29;2.00;99.90
4556;DHT22;2290;48.674;9.018;2023-03-04T09:15:44;1.90;99.90
4556;DHT22;2290;48.674;9.018;2023-03-04T09:18:26;1.90;99.90
4556;DHT22;2290;48.674;9.018;2023-03-04T09:48:45;1.80;99.90
4556;DHT22;2290;48.674;9.018;2023-03-04T09:55:04;1.80;99.90
4556;DHT22;2290;48.674;9.018;2023-03-04T09:58:02;1.90;99.90
4556;DHT22;2290;48.674;9.018;2023-03-04T10:00:55;2.10;99.90
4556;DHT22;2290;48.674;9.018;2023-03-04T10:03:30;2.30;99.90
4556;DHT22;2290;48.674;9.018;2023-03-04T10:06:08;2.40;99.90
4556;DHT22;2290;48.674;9.018;2023-03-04T10:08:45;2.50;99.90
4556;DHT22;2290;48.674;9.018;2023-03-04T10:11:16;2.70;99.90
4556;DHT22;2290;48.674;9.018;2023-03-04T10:15:03;2.80;99.90
4556;DHT22;2290;48.674;9.018;2023-03-04T11:06:25;4.00;99.90
4556;DHT22;2290;48.674;9.018;2023-03-04T11:09:20;4.00;99.90
4556;DHT22;2290;48.674;9.018;2023-03-04T11:11:51;4.00;99.90
4556;DHT22;2290;48.674;9.018;2023-03-04T11:17:00;3.70;99.90
4556;DHT22;2290;48.674;9.018;2023-03-04T11:22:29;4.00;99.90
4556;DHT22;2290;48.674;9.018;2023-03-04T11:32:35;4.70;99.90
4556;DHT22;2290;48.674;9.018;2023-03-04T11:38:56;4.80;99.90
4556;DHT22;2290;48.674;9.018;2023-03-04T11:42:01;4.70;99.90
4556;DHT22;2290;48.674;9.018;2023-03-04T11:44:29;4.80;99.90
4556;DHT22;2290;48.674;9.018;2023-03-04T12:01:02;5.40;99.90
4556;DHT22;2290;48.674;9.018;2023-03-04T12:10:48;4.20;99.90
4556;DHT22;2290;48.674;9.018;2023-03-04T12:13:44;4.40;99.90
4556;DHT22;2290;48.674;9.018;2023-03-04T12:16:28;4.80;99.90
4556;DHT22;2290;48.674;9.018;2023-03-04T12:51:31;5.10;99.90
4556;DHT22;2290;48.674;9.018;2023-03-04T12:55:07;5.10;99.90
4556;DHT22;2290;48.674;9.018;2023-03-04T13:01:29;5.40;99.90
4556;DHT22;2290;48.674;9.018;2023-03-04T13:43:57;5.40;99.90
4556;DHT22;2290;48.674;9.018;2023-03-04T13:50:56;5.00;99.90
4556;DHT22;2290;48.674;9.018;2023-03-04T14:00:19;5.20;99.90
4556;DHT22;2290;48.674;9.018;2023-03-04T14:07:17;5.80;99.90
4556;DHT22;2290;48.674;9.018;2023-03-04T14:17:32;5.60;99.90
4556;DHT22;2290;48.674;9.018;2023-03-04T14:58:58;3.80;99.90
4556;DHT22;2290;48.674;9.018;2023-03-04T15:20:19;3.80;99.90
4556;DHT22;2290;48.674;9.018;2023-03-04T15:27:30;3.70;99.90
4556;DHT22;2290;48.674;9.018;2023-03-04T15:29:58;3.60;99.90
4556;DHT22;2290;48.674;9.018;2023-03-04T15:32:52;3.50;99.90
4556;DHT22;2290;48.674;9.018;2023-03-04T15:35:29;3.50;99.90
4556;DHT22;2290;48.674;9.018;2023-03-04T15:38:18;3.50;99.90
4556;DHT22;2290;48.674;9.018;2023-03-04T15:41:59;3.40;99.90
4556;DHT22;2290;48.674;9.018;2023-03-04T15:45:30;3.30;99.90
4556;DHT22;2290;48.674;9.018;2023-03-04T15:48:52;3.30;99.90
4556;DHT22;2290;48.674;9.018;2023-03-04T15:51:55;3.40;99.90
4556;DHT22;2290;48.674;9.018;2023-03-04T15:55:22;3.30;99.90
4556;DHT22;2290;48.674;9.018;2023-03-04T15:58:55;3.40;99.90
4556;DHT22;2290;48.674;9.018;2023-03-04T16:04:26;3.30;99.90
4556;DHT22;2290;48.674;9.018;2023-03-04T16:06:55;3.20;99.90
4556;DHT22;2290;48.674;9.018;2023-03-04T16:09:25;3.20;99.90
4556;DHT22;2290;48.674;9.018;2023-03-04T16:11:54;3.10;99.90
4556;DHT22;2290;48.674;9.018;2023-03-04T16:14:26;3.10;99.90
4556;DHT22;2290;48.674;9.018;2023-03-04T16:17:19;3.20;99.90
4556;DHT22;2290;48.674;9.018;2023-03-04T16:19:46;3.20;99.90
4556;DHT22;2290;48.674;9.018;2023-03-04T16:22:19;3.30;99.90
4556;DHT22;2290;48.674;9.018;2023-03-04T16:24:57;3.40;99.90
4556;DHT22;2290;48.674;9.018;2023-03-04T16:27:23;3.50;99.90
4556;DHT22;2290;48.674;9.018;2023-03-04T16:29:50;3.40;99.90
4556;DHT22;2290;48.674;9.018;2023-03-04T16:32:16;3.40;99.90
4556;DHT22;2290;48.674;9.018;2023-03-04T16:34:41;3.40;99.90
4556;DHT22;2290;48.674;9.018;2023-03-04T16:37:13;3.40;99.90
4556;DHT22;2290;48.674;9.018;2023-03-04T16:39:40;3.30;99.90
4556;DHT22;2290;48.674;9.018;2023-03-04T16:42:14;3.30;99.90
4556;DHT22;2290;48.674;9.018;2023-03-04T16:44:41;3.30;99.90
4556;DHT22;2290;48.674;9.018;2023-03-04T16:47:07;3.40;99.90
4556;DHT22;2290;48.674;9.018;2023-03-04T16:49:32;3.50;99.90
4556;DHT22;2290;48.674;9.018;2023-03-04T16:51:59;3.60;99.90
4556;DHT22;2290;48.674;9.018;2023-03-04T16:54:50;3.60;99.90
4556;DHT22;2290;48.674;9.018;2023-03-04T16:57:59;3.50;99.90
4556;DHT22;2290;48.674;9.018;2023-03-04T17:00:33;3.30;99.90
4556;DHT22;2290;48.674;9.018;2023-03-04T17:06:53;3.30;99.90
4556;DHT22;2290;48.674;9.018;2023-03-04T17:10:00;3.30;99.90
4556;DHT22;2290;48.674;9.018;2023-03-04T17:13:26;3.30;99.90
4556;DHT22;2290;48.674;9.018;2023-03-04T17:16:03;3.40;99.90
4556;DHT22;2290;48.674;9.018;2023-03-04T17:18:30;3.40;99.90
4556;DHT22;2290;48.674;9.018;2023-03-04T17:21:04;3.30;99.90
4556;DHT22;2290;48.674;9.018;2023-03-04T17:24:02;3.20;99.90
4556;DHT22;2290;48.674;9.018;2023-03-04T17:26:51;3.20;99.90
4556;DHT22;2290;48.674;9.018;2023-03-04T17:29:17;3.30;99.90
4556;DHT22;2290;48.674;9.018;2023-03-04T17:31:43;3.30;99.90
4556;DHT22;2290;48.674;9.018;2023-03-04T17:34:08;3.30;99.90
4556;DHT22;2290;48.674;9.018;2023-03-04T17:36:34;3.40;99.90
4556;DHT22;2290;48.674;9.018;2023-03-04T17:39:01;3.30;99.90
4556;DHT22;2290;48.674;9.018;2023-03-04T17:41:27;3.30;99.90
4556;DHT22;2290;48.674;9.018;2023-03-04T17:43:53;3.40;99.90
4556;DHT22;2290;48.674;9.018;2023-03-04T17:46:22;3.40;99.90
4556;DHT22;2290;48.674;9.018;2023-03-04T17:48:52;3.40;99.90
4556;DHT22;2290;48.674;9.018;2023-03-04T17:51:35;3.50;99.90
4556;DHT22;2290;48.674;9.018;2023-03-04T17:54:04;3.50;99.90
4556;DHT22;2290;48.674;9.018;2023-03-04T17:56:32;3.50;99.90
4556;DHT22;2290;48.674;9.018;2023-03-04T17:58:59;3.50;99.90
4556;DHT22;2290;48.674;9.018;2023-03-04T18:01:33;3.60;99.90
4556;DHT22;2290;48.674;9.018;2023-03-04T18:03:59;3.60;99.90
4556;DHT22;2290;48.674;9.018;2023-03-04T18:06:24;3.60;99.90
4556;DHT22;2290;48.674;9.018;2023-03-04T18:08:51;3.60;99.90
4556;DHT22;2290;48.674;9.018;2023-03-04T18:11:20;3.60;99.90
4556;DHT22;2290;48.674;9.018;2023-03-04T18:13:47;3.60;99.90
4556;DHT22;2290;48.674;9.018;2023-03-04T18:16:14;3.60;99.90
4556;DHT22;2290;48.674;9.018;2023-03-04T18:18:43;3.60;99.90
4556;DHT22;2290;48.674;9.018;2023-03-04T18:21:09;3.70;99.90
4556;DHT22;2290;48.674;9.018;2023-03-04T18:23:35;3.60;99.90
4556;DHT22;2290;48.674;9.018;2023-03-04T18:26:02;3.50;99.90
4556;DHT22;2290;48.674;9.018;2023-03-04T18:28:28;3.50;99.90
4556;DHT22;2290;48.674;9.018;2023-03-04T18:30:54;3.40;99.90
4556;DHT22;2290;48.674;9.018;2023-03-04T18:33:20;3.40;99.90
4556;DHT22;2290;48.674;9.018;2023-03-04T18:35:46;3.40;99.90
4556;DHT22;2290;48.674;9.018;2023-03-04T18:38:13;3.40;99.90
4556;DHT22;2290;48.674;9.018;2023-03-04T18:40:40;3.40;99.90
4556;DHT22;2290;48.674;9.018;2023-03-04T18:43:06;3.50;99.90
4556;DHT22;2290;48.674;9.018;2023-03-04T18:45:31;3.60;99.90
4556;DHT22;2290;48.674;9.018;2023-03-04T18:47:57;3.50;99.90
4556;DHT22;2290;48.674;9.018;2023-03-04T18:50:27;3.60;99.90
4556;DHT22;2290;48.674;9.018;2023-03-04T18:52:53;3.60;99.90
4556;DHT22;2290;48.674;9.018;2023-03-04T18:55:21;3.70;99.90
4556;DHT22;2290;48.674;9.018;2023-03-04T18:57:52;3.70;99.90
4556;DHT22;2290;48.674;9.018;2023-03-04T19:00:20;3.70;99.90
4556;DHT22;2290;48.674;9.018;2023-03-04T19:02:55;3.70;99.90
4556;DHT22;2290;48.674;9.018;2023-03-04T19:05:27;3.70;99.90
4556;DHT22;2290;48.674;9.018;2023-03-04T19:07:55;3.70;99.90
4556;DHT22;2290;48.674;9.018;2023-03-04T19:10:21;3.70;99.90
4556;DHT22;2290;48.674;9.018;2023-03-04T19:12:48;3.70;99.90
4556;DHT22;2290;48.674;9.018;2023-03-04T19:15:14;3.70;99.90
4556;DHT22;2290;48.674;9.018;2023-03-04T19:17:40;3.70;99.90
4556;DHT22;2290;48.674;9.018;2023-03-04T19:20:08;3.70;99.90
4556;DHT22;2290;48.674;9.018;2023-03-04T19:22:35;3.60;99.90
4556;DHT22;2290;48.674;9.018;2023-03-04T19:25:01;3.60;99.90
4556;DHT22;2290;48.674;9.018;2023-03-04T19:27:26;3.60;99.90
4556;DHT22;2290;48.674;9.018;2023-03-04T19:29:52;3.60;99.90
4556;DHT22;2290;48.674;9.018;2023-03-04T19:32:18;3.70;99.90
4556;DHT22;2290;48.674;9.018;2023-03-04T19:34:44;3.70;99.90
4556;DHT22;2290;48.674;9.018;2023-03-04T19:37:13;3.60;99.90
4556;DHT22;2290;48.674;9.018;2023-03-04T19:39:39;3.50;99.90
4556;DHT22;2290;48.674;9.018;2023-03-04T19:42:05;3.50;99.90
4556;DHT22;2290;48.674;9.018;2023-03-04T19:44:30;3.50;99.90
4556;DHT22;2290;48.674;9.018;2023-03-04T19:46:57;3.50;99.90
4556;DHT22;2290;48.674;9.018;2023-03-04T19:49:25;3.50;99.90
4556;DHT22;2290;48.674;9.018;2023-03-04T19:51:51;3.50;99.90
4556;DHT22;2290;48.674;9.018;2023-03-04T19:54:17;3.40;99.90
4556;DHT22;2290;48.674;9.018;2023-03-04T19:56:43;3.40;99.90
4556;DHT22;2290;48.674;9.018;2023-03-04T19:59:08;3.40;99.90
4556;DHT22;2290;48.674;9.018;2023-03-04T20:01:36;3.40;99.90
4556;DHT22;2290;48.674;9.018;2023-03-04T20:04:07;3.40;99.90
4556;DHT22;2290;48.674;9.018;2023-03-04T20:06:43;3.40;99.90
4556;DHT22;2290;48.674;9.018;2023-03-04T20:09:11;3.40;99.90
4556;DHT22;2290;48.674;9.018;2023-03-04T20:11:37;3.40;99.90
4556;DHT22;2290;48.674;9.018;2023-03-04T20:14:03;3.40;99.90
4556;DHT22;2290;48.674;9.018;2023-03-04T20:16:31;3.40;99.90
4556;DHT22;2290;48.674;9.018;2023-03-04T20:18:59;3.40;99.90
4556;DHT22;2290;48.674;9.018;2023-03-04T20:21:28;3.40;99.90
4556;DHT22;2290;48.674;9.018;2023-03-04T20:23:55;3.40;99.90
4556;DHT22;2290;48.674;9.018;2023-03-04T20:26:21;3.50;99.90
4556;DHT22;2290;48.674;9.018;2023-03-04T20:28:46;3.50;99.90
4556;DHT22;2290;48.674;9.018;2023-03-04T20:31:21;3.50;99.90
4556;DHT22;2290;48.674;9.018;2023-03-04T20:33:48;3.50;99.90
4556;DHT22;2290;48.674;9.018;2023-03-04T20:36:21;3.50;99.90
4556;DHT22;2290;48.674;9.018;2023-03-04T20:38:48;3.50;99.90
4556;DHT22;2290;48.674;9.018;2023-03-04T20:41:15;3.60;99.90
4556;DHT22;2290;48.674;9.018;2023-03-04T20:43:41;3.50;99.90
4556;DHT22;2290;48.674;9.018;2023-03-04T20:46:41;3.50;99.90
4556;DHT22;2290;48.674;9.018;2023-03-04T20:49:15;3.50;99.90
4556;DHT22;2290;48.674;9.018;2023-03-04T20:51:44;3.50;99.90
4556;DHT22;2290;48.674;9.018;2023-03-04T20:54:09;3.60;99.90
4556;DHT22;2290;48.674;9.018;2023-03-04T20:56:36;3.60;99.90
4556;DHT22;2290;48.674;9.018;2023-03-04T20:59:03;3.60;99.90
4556;DHT22;2290;48.674;9.018;2023-03-04T21:01:30;3.60;99.90
4556;DHT22;2290;48.674;9.018;2023-03-04T21:03:57;3.60;99.90
4556;DHT22;2290;48.674;9.018;2023-03-04T21:06:23;3.50;99.90
4556;DHT22;2290;48.674;9.018;2023-03-04T21:08:56;3.50;99.90
4556;DHT22;2290;48.674;9.018;2023-03-04T21:11:23;3.40;99.90
4556;DHT22;2290;48.674;9.018;2023-03-04T21:13:50;3.40;99.90
4556;DHT22;2290;48.674;9.018;2023-03-04T21:16:23;3.50;99.90
4556;DHT22;2290;48.674;9.018;2023-03-04T21:18:49;3.50;99.90
4556;DHT22;2290;48.674;9.018;2023-03-04T21:21:19;3.40;99.90
4556;DHT22;2290;48.674;9.018;2023-03-04T21:23:47;3.40;99.90
4556;DHT22;2290;48.674;9.018;2023-03-04T21:26:15;3.30;99.90
4556;DHT22;2290;48.674;9.018;2023-03-04T21:28:40;3.40;99.90
4556;DHT22;2290;48.674;9.018;2023-03-04T21:31:23;3.40;99.90
4556;DHT22;2290;48.674;9.018;2023-03-04T21:33:49;3.50;99.90
4556;DHT22;2290;48.674;9.018;2023-03-04T21:36:16;3.40;99.90
4556;DHT22;2290;48.674;9.018;2023-03-04T21:38:42;3.40;99.90
4556;DHT22;2290;48.674;9.018;2023-03-04T21:41:17;3.40;99.90
4556;DHT22;2290;48.674;9.018;2023-03-04T21:43:44;3.40;99.90
4556;DHT22;2290;48.674;9.018;2023-03-04T21:46:12;3.40;99.90
4556;DHT22;2290;48.674;9.018;2023-03-04T21:48:38;3.50;99.90
4556;DHT22;2290;48.674;9.018;2023-03-04T21:51:06;3.50;99.90
4556;DHT22;2290;48.674;9.018;2023-03-04T21:53:33;3.50;99.90
4556;DHT22;2290;48.674;9.018;2023-03-04T21:56:00;3.50;99.90
4556;DHT22;2290;48.674;9.018;2023-03-04T21:58:26;3.60;99.90
4556;DHT22;2290;48.674;9.018;2023-03-04T22:00:52;3.50;99.90
4556;DHT22;2290;48.674;9.018;2023-03-04T22:03:20;3.60;99.90
4556;DHT22;2290;48.674;9.018;2023-03-04T22:05:46;3.60;99.90
4556;DHT22;2290;48.674;9.018;2023-03-04T22:08:15;3.60;99.90
4556;DHT22;2290;48.674;9.018;2023-03-04T22:10:41;3.60;99.90
4556;DHT22;2290;48.674;9.018;2023-03-04T22:13:10;3.60;99.90
4556;DHT22;2290;48.674;9.018;2023-03-04T22:15:38;3.70;99.90
4556;DHT22;2290;48.674;9.018;2023-03-04T22:18:05;3.70;99.90
4556;DHT22;2290;48.674;9.018;2023-03-04T22:20:36;3.70;99.90
4556;DHT22;2290;48.674;9.018;2023-03-04T22:23:03;3.70;99.90
4556;DHT22;2290;48.674;9.018;2023-03-04T22:25:29;3.70;99.90
4556;DHT22;2290;48.674;9.018;2023-03-04T22:27:55;3.70;99.90
4556;DHT22;2290;48.674;9.018;2023-03-04T22:30:20;3.70;99.90
4556;DHT22;2290;48.674;9.018;2023-03-04T22:32:47;3.70;99.90
4556;DHT22;2290;48.674;9.018;2023-03-04T22:35:16;3.70;99.90
4556;DHT22;2290;48.674;9.018;2023-03-04T22:37:42;3.80;99.90
4556;DHT22;2290;48.674;9.018;2023-03-04T22:40:09;3.80;99.90
4556;DHT22;2290;48.674;9.018;2023-03-04T22:42:42;3.80;99.90
4556;DHT22;2290;48.674;9.018;2023-03-04T22:45:09;3.90;99.90
4556;DHT22;2290;48.674;9.018;2023-03-04T22:47:35;3.80;99.90
4556;DHT22;2290;48.674;9.018;2023-03-04T22:50:01;3.90;99.90
4556;DHT22;2290;48.674;9.018;2023-03-04T22:52:26;3.90;99.90
4556;DHT22;2290;48.674;9.018;2023-03-04T22:54:52;3.80;99.90
4556;DHT22;2290;48.674;9.018;2023-03-04T22:57:17;3.70;99.90
4556;DHT22;2290;48.674;9.018;2023-03-04T22:59:43;3.80;99.90
4556;DHT22;2290;48.674;9.018;2023-03-04T23:02:08;3.80;99.90
4556;DHT22;2290;48.674;9.018;2023-03-04T23:04:34;3.80;99.90
4556;DHT22;2290;48.674;9.018;2023-03-04T23:07:00;3.80;99.90
4556;DHT22;2290;48.674;9.018;2023-03-04T23:09:28;3.90;99.90
4556;DHT22;2290;48.674;9.018;2023-03-04T23:11:54;3.80;99.90
4556;DHT22;2290;48.674;9.018;2023-03-04T23:14:19;3.80;99.90
4556;DHT22;2290;48.674;9.018;2023-03-04T23:16:45;3.80;99.90
4556;DHT22;2290;48.674;9.018;2023-03-04T23:19:15;3.80;99.90
4556;DHT22;2290;48.674;9.018;2023-03-04T23:21:41;3.90;99.90
4556;DHT22;2290;48.674;9.018;2023-03-04T23:24:08;3.80;99.90
4556;DHT22;2290;48.674;9.018;2023-03-04T23:26:37;3.80;99.90
4556;DHT22;2290;48.674;9.018;2023-03-04T23:29:08;3.80;99.90
4556;DHT22;2290;48.674;9.018;2023-03-04T23:31:34;3.80;99.90
4556;DHT22;2290;48.674;9.018;2023-03-04T23:34:01;3.90;99.90
4556;DHT22;2290;48.674;9.018;2023-03-04T23:36:31;3.80;99.90
4556;DHT22;2290;48.674;9.018;2023-03-04T23:39:02;3.70;99.90
4556;DHT22;2290;48.674;9.018;2023-03-04T23:41:29;3.70;99.90
4556;DHT22;2290;48.674;9.018;2023-03-04T23:43:57;3.70;99.90
4556;DHT22;2290;48.674;9.018;2023-03-04T23:46:24;3.70;99.90
4556;DHT22;2290;48.674;9.018;2023-03-04T23:48:51;3.70;99.90
4556;DHT22;2290;48.674;9.018;2023-03-04T23:51:21;3.70;99.90
4556;DHT22;2290;48.674;9.018;2023-03-04T23:53:47;3.80;99.90
4556;DHT22;2290;48.674;9.018;2023-03-04T23:56:16;3.80;99.90
4556;DHT22;2290;48.674;9.018;2023-03-04T23:58:42;3.90;99.90
